sensor_id;sensor_type;location;lat;lon;timestamp;temperature;humidity
8736;DHT22;4404;49.308;12.178;2024-03-02T06:15:08;5.40;99.90
8736;DHT22;4404;49.308;12.178;2024-03-02T06:17:10;6.30;99.90
8736;DHT22;4404;49.308;12.178;2024-03-02T06:19:13;6.40;99.90
8736;DHT22;4404;49.308;12.178;2024-03-02T06:21:15;6.80;99.90
8736;DHT22;4404;49.308;12.178;2024-03-02T06:23:19;6.90;99.90
8736;DHT22;4404;49.308;12.178;2024-03-02T06:25:21;6.50;99.90
8736;DHT22;4404;49.308;12.178;2024-03-02T06:27:24;6.50;99.90
8736;DHT22;4404;49.308;12.178;2024-03-02T06:29:26;6.70;99.90
8736;DHT22;4404;49.308;12.178;2024-03-02T06:31:31;6.40;99.90
8736;DHT22;4404;49.308;12.178;2024-03-02T06:33:34;6.70;99.90
8736;DHT22;4404;49.308;12.178;2024-03-02T06:35:37;7.10;99.90
8736;DHT22;4404;49.308;12.178;2024-03-02T06:37:40;6.70;99.90
8736;DHT22;4404;49.308;12.178;2024-03-02T06:39:43;6.60;99.90
8736;DHT22;4404;49.308;12.178;2024-03-02T06:41:45;6.50;99.90
8736;DHT22;4404;49.308;12.178;2024-03-02T06:43:48;6.70;99.90
8736;DHT22;4404;49.308;12.178;2024-03-02T06:45:50;6.50;99.90
8736;DHT22;4404;49.308;12.178;2024-03-02T06:47:53;6.70;99.90
8736;DHT22;4404;49.308;12.178;2024-03-02T06:49:55;6.60;99.90
8736;DHT22;4404;49.308;12.178;2024-03-02T06:51:58;6.60;99.90
8736;DHT22;4404;49.308;12.178;2024-03-02T06:54:00;6.60;99.90
8736;DHT22;4404;49.308;12.178;2024-03-02T06:56:03;6.60;99.90
8736;DHT22;4404;49.308;12.178;2024-03-02T06:58:06;6.60;99.90
8736;DHT22;4404;49.308;12.178;2024-03-02T07:00:09;6.60;99.90
8736;DHT22;4404;49.308;12.178;2024-03-02T07:02:12;6.60;99.90
8736;DHT22;4404;49.308;12.178;2024-03-02T07:04:14;6.80;99.90
8736;DHT22;4404;49.308;12.178;2024-03-02T07:06:16;6.80;99.90
8736;DHT22;4404;49.308;12.178;2024-03-02T07:08:18;6.90;99.90
8736;DHT22;4404;49.308;12.178;2024-03-02T07:10:20;6.70;99.90
8736;DHT22;4404;49.308;12.178;2024-03-02T07:12:22;6.60;99.90
8736;DHT22;4404;49.308;12.178;2024-03-02T07:14:24;6.60;99.90
8736;DHT22;4404;49.308;12.178;2024-03-02T07:16:47;7.00;99.90
8736;DHT22;4404;49.308;12.178;2024-03-02T07:18:49;6.70;99.90
8736;DHT22;4404;49.308;12.178;2024-03-02T07:20:53;6.70;99.90
8736;DHT22;4404;49.308;12.178;2024-03-02T07:22:56;6.80;99.90
8736;DHT22;4404;49.308;12.178;2024-03-02T07:24:58;6.90;99.90
8736;DHT22;4404;49.308;12.178;2024-03-02T07:27:01;6.90;99.90
8736;DHT22;4404;49.308;12.178;2024-03-02T07:29:04;7.00;99.90
8736;DHT22;4404;49.308;12.178;2024-03-02T07:31:07;7.10;99.90
8736;DHT22;4404;49.308;12.178;2024-03-02T07:33:10;7.10;99.90
8736;DHT22;4404;49.308;12.178;2024-03-02T07:35:12;7.20;99.90
8736;DHT22;4404;49.308;12.178;2024-03-02T07:37:16;7.20;99.90
8736;DHT22;4404;49.308;12.178;2024-03-02T07:39:20;7.40;99.90
8736;DHT22;4404;49.308;12.178;2024-03-02T07:41:23;7.10;99.90
8736;DHT22;4404;49.308;12.178;2024-03-02T07:43:26;7.10;99.90
8736;DHT22;4404;49.308;12.178;2024-03-02T07:45:27;7.20;99.90
8736;DHT22;4404;49.308;12.178;2024-03-02T07:47:29;7.20;99.90
8736;DHT22;4404;49.308;12.178;2024-03-02T07:49:30;7.30;99.90
8736;DHT22;4404;49.308;12.178;2024-03-02T07:51:32;7.30;99.90
8736;DHT22;4404;49.308;12.178;2024-03-02T07:53:35;7.20;99.90
8736;DHT22;4404;49.308;12.178;2024-03-02T07:55:37;7.20;99.90
8736;DHT22;4404;49.308;12.178;2024-03-02T07:57:40;7.20;99.90
8736;DHT22;4404;49.308;12.178;2024-03-02T07:59:43;7.30;99.90
8736;DHT22;4404;49.308;12.178;2024-03-02T08:01:45;7.40;99.90
8736;DHT22;4404;49.308;12.178;2024-03-02T08:03:48;7.40;99.90
8736;DHT22;4404;49.308;12.178;2024-03-02T08:05:50;7.40;99.90
8736;DHT22;4404;49.308;12.178;2024-03-02T08:07:53;7.50;99.90
8736;DHT22;4404;49.308;12.178;2024-03-02T08:09:56;7.50;99.90
8736;DHT22;4404;49.308;12.178;2024-03-02T08:11:58;7.50;99.90
8736;DHT22;4404;49.308;12.178;2024-03-02T08:31:47;7.60;99.90
8736;DHT22;4404;49.308;12.178;2024-03-02T08:37:11;7.70;99.90
8736;DHT22;4404;49.308;12.178;2024-03-02T09:12:14;8.30;99.90
8736;DHT22;4404;49.308;12.178;2024-03-02T10:10:23;8.60;99.90
8736;DHT22;4404;49.308;12.178;2024-03-02T11:10:02;9.40;99.90
8736;DHT22;4404;49.308;12.178;2024-03-02T11:36:01;10.00;99.90
8736;DHT22;4404;49.308;12.178;2024-03-02T13:35:04;20.00;90.50
8736;DHT22;4404;49.308;12.178;2024-03-02T13:47:08;23.70;77.10
8736;DHT22;4404;49.308;12.178;2024-03-02T14:28:31;18.10;91.70
8736;DHT22;4404;49.308;12.178;2024-03-02T15:32:38;14.10;99.90
8736;DHT22;4404;49.308;12.178;2024-03-02T15:34:59;14.20;99.90
8736;DHT22;4404;49.308;12.178;2024-03-02T15:44:08;14.00;99.90
8736;DHT22;4404;49.308;12.178;2024-03-02T15:46:12;14.00;99.90
8736;DHT22;4404;49.308;12.178;2024-03-02T15:55:01;13.50;99.90
8736;DHT22;4404;49.308;12.178;2024-03-02T15:57:12;13.10;99.90
8736;DHT22;4404;49.308;12.178;2024-03-02T16:19:16;12.20;99.90
8736;DHT22;4404;49.308;12.178;2024-03-02T16:21:24;12.30;99.90
8736;DHT22;4404;49.308;12.178;2024-03-02T16:46:18;11.10;99.90
8736;DHT22;4404;49.308;12.178;2024-03-02T16:54:19;11.00;99.90
8736;DHT22;4404;49.308;12.178;2024-03-02T16:59:17;10.90;99.90
8736;DHT22;4404;49.308;12.178;2024-03-02T17:23:17;9.80;99.90
8736;DHT22;4404;49.308;12.178;2024-03-02T17:31:35;9.80;99.90
8736;DHT22;4404;49.308;12.178;2024-03-02T18:16:22;8.50;99.90
8736;DHT22;4404;49.308;12.178;2024-03-02T18:28:18;8.50;99.90
8736;DHT22;4404;49.308;12.178;2024-03-02T18:37:20;8.50;99.90
8736;DHT22;4404;49.308;12.178;2024-03-02T18:46:18;8.20;99.90
8736;DHT22;4404;49.308;12.178;2024-03-02T19:18:22;7.90;99.90
8736;DHT22;4404;49.308;12.178;2024-03-02T19:20:24;7.90;99.90
